Pendleton, OR (97801)

9:16 AM PDT en Octubre 01, 2014 (GMT -0700)
Sun Ridge Estates | Change Station
CLOSE
Current Station
Estación meteorológica personal
Location: Pendleton, OR
Altura: 1210 ft
Estaciones meteorológicas cercanas

Alt 1210 ft 45.65 °N, 118.79 °W | Updated 4 minutes ago

Clear
Despejado
56.6 ° F
Sensación térmica 56.6 ° F
N
3.0
Viento Variable Viento desde SE
Gusts 4.0 mph

Hoy
Alta -- | Baja -- ° F
--% Posibilidad de precipitaciones
Ayer
Alta -- | Baja -- ° F
Precip. -- pul
6:53 AM 6:35 PM
Creciente, 49% visible
Presión 30.17 pul
Visibilidad 10.0 Millas
Nubes Despejado
Punto de rocío 44 ° F
Humedad 62%
Precipitaciones 0.00 pul
Espesor de la nieve 0 in , 0 in , 0 in
UV 1 de una escala de 12
Polen 4.00 de una escala de 12
Calidad del aire No disponible.
Flu Activity No disponible.
METAR KPDT 011553Z 15004KT 10SM CLR 11/04 A3018 RMK AO2 SLP215 T01110044

More Conditions Fewer Conditions

Presión 30.17 pul
Visibilidad 10.0 Millas
Nubes Despejado
Punto de rocío 44 ° F
Humedad 62%
Precipitaciones 0.00 pul
Espesor de la nieve 0 in , 0 in , 0 in
UV 1 de una escala de 12
Polen 4.00 de una escala de 12
Calidad del aire No disponible.
Flu Activity No disponible.
METAR KPDT 011553Z 15004KT 10SM CLR 11/04 A3018 RMK AO2 SLP215 T01110044

More Conditions Fewer Conditions

10-Day Weather Forecast

Almanac

Astronomía

Oct. 01, 2014 Salida Puesta
Hora real 6:53 AM PDT 6:35 PM PDT
Crepúsculo civil 6:23 AM PDT 7:04 PM PDT
Crepúsculo náutico 5:49 AM PDT 7:39 PM PDT
Crepúsculo astronómico 5:14 AM PDT 8:13 PM PDT
Luna 2:11 PM PDT Sin puesta de luna
Horas de luz 12h 40m
Horas de luz
11h 41m
Tomorrow will be 3m 11s shorter.
Creciente, 49% of the Moon is Illuminated
Hoy
Creciente
Oct 1
Cuarto creciente
Oct 8
Luna llena
Oct 15
Cuarto menguante
Oct 23
Nueva

Extremos de hoy

Máximos del estado Bajos del estado

Community

WunderPhotos

Upload Photos

1,757,976 ¡fotos cargadas!

WunderBlogs® & News

Nearby

Grosos de nieve

Estación Profundido Altura
Mckenzie 0 in 4800 ft
Diamond Lake 0 in 5315 ft
Annie Springs 0 in 6020 ft
Peavine Ridge 0 in 3500 ft
Blazed Alder 0 in 3650 ft

Actividad de terremotos

Ciudad Distance Mag. Tiempo y dato
No hay informes recientes de la actividad sísmica.
Magnitud mínima muestra es 2,5.

Temperaturas de aguas costeras

Lugar Temperatura
Sin partes meteorológicos de las estaciones

Estaciones meteorológicas cercanas